sensor_id;sensor_type;location;lat;lon;timestamp;temperature;humidity
17891;DHT22;9071;48.220;14.480;2022-12-18T00:04:27;-5.30;99.90
17891;DHT22;9071;48.220;14.480;2022-12-18T00:09:29;-5.20;99.90
17891;DHT22;9071;48.220;14.480;2022-12-18T00:14:31;-5.10;99.90
17891;DHT22;9071;48.220;14.480;2022-12-18T00:19:35;-4.90;99.90
17891;DHT22;9071;48.220;14.480;2022-12-18T00:24:37;-4.90;99.90
17891;DHT22;9071;48.220;14.480;2022-12-18T00:29:39;-4.90;99.90
17891;DHT22;9071;48.220;14.480;2022-12-18T00:34:42;-4.70;99.90
17891;DHT22;9071;48.220;14.480;2022-12-18T00:39:44;-4.60;99.90
17891;DHT22;9071;48.220;14.480;2022-12-18T00:44:46;-4.60;99.90
17891;DHT22;9071;48.220;14.480;2022-12-18T00:49:49;-4.50;99.90
17891;DHT22;9071;48.220;14.480;2022-12-18T00:54:51;-4.40;99.90
17891;DHT22;9071;48.220;14.480;2022-12-18T00:59:53;-4.40;99.90
17891;DHT22;9071;48.220;14.480;2022-12-18T01:04:57;-4.30;99.90
17891;DHT22;9071;48.220;14.480;2022-12-18T01:09:59;-4.20;99.90
17891;DHT22;9071;48.220;14.480;2022-12-18T01:15:01;-4.20;99.90
17891;DHT22;9071;48.220;14.480;2022-12-18T01:20:06;-4.10;99.90
17891;DHT22;9071;48.220;14.480;2022-12-18T01:25:09;-4.10;99.90
17891;DHT22;9071;48.220;14.480;2022-12-18T01:30:11;-4.10;99.90
17891;DHT22;9071;48.220;14.480;2022-12-18T01:35:15;-4.10;99.90
17891;DHT22;9071;48.220;14.480;2022-12-18T01:40:17;-4.10;99.90
17891;DHT22;9071;48.220;14.480;2022-12-18T01:45:26;-4.20;99.90
17891;DHT22;9071;48.220;14.480;2022-12-18T01:50:32;-4.20;99.90
17891;DHT22;9071;48.220;14.480;2022-12-18T01:55:39;-4.40;99.90
17891;DHT22;9071;48.220;14.480;2022-12-18T02:00:43;-4.50;99.90
17891;DHT22;9071;48.220;14.480;2022-12-18T02:05:49;-4.60;99.90
17891;DHT22;9071;48.220;14.480;2022-12-18T02:11:00;-4.60;99.90
17891;DHT22;9071;48.220;14.480;2022-12-18T02:16:10;-4.50;99.90
17891;DHT22;9071;48.220;14.480;2022-12-18T02:21:22;-4.50;99.90
17891;DHT22;9071;48.220;14.480;2022-12-18T02:26:35;-4.40;99.90
17891;DHT22;9071;48.220;14.480;2022-12-18T02:31:42;-4.40;99.90
17891;DHT22;9071;48.220;14.480;2022-12-18T02:36:45;-4.50;99.90
17891;DHT22;9071;48.220;14.480;2022-12-18T02:41:50;-4.50;99.90
17891;DHT22;9071;48.220;14.480;2022-12-18T02:46:53;-4.40;99.90
17891;DHT22;9071;48.220;14.480;2022-12-18T02:52:02;-4.40;99.90
17891;DHT22;9071;48.220;14.480;2022-12-18T02:57:14;-4.40;99.90
17891;DHT22;9071;48.220;14.480;2022-12-18T03:02:21;-4.50;99.90
17891;DHT22;9071;48.220;14.480;2022-12-18T03:07:32;-4.60;99.90
17891;DHT22;9071;48.220;14.480;2022-12-18T03:12:41;-4.60;99.90
17891;DHT22;9071;48.220;14.480;2022-12-18T03:17:48;-4.60;99.90
17891;DHT22;9071;48.220;14.480;2022-12-18T03:22:59;-4.60;99.90
17891;DHT22;9071;48.220;14.480;2022-12-18T03:28:06;-4.50;99.90
17891;DHT22;9071;48.220;14.480;2022-12-18T03:33:14;-4.50;99.90
17891;DHT22;9071;48.220;14.480;2022-12-18T03:38:20;-4.50;99.90
17891;DHT22;9071;48.220;14.480;2022-12-18T03:43:32;-4.50;99.90
17891;DHT22;9071;48.220;14.480;2022-12-18T03:48:38;-4.40;99.90
17891;DHT22;9071;48.220;14.480;2022-12-18T03:53:47;-4.40;99.90
17891;DHT22;9071;48.220;14.480;2022-12-18T03:58:53;-4.50;99.90
17891;DHT22;9071;48.220;14.480;2022-12-18T04:03:57;-4.60;99.90
17891;DHT22;9071;48.220;14.480;2022-12-18T04:09:00;-4.60;99.90
17891;DHT22;9071;48.220;14.480;2022-12-18T04:14:03;-4.60;99.90
17891;DHT22;9071;48.220;14.480;2022-12-18T04:19:05;-4.60;99.90
17891;DHT22;9071;48.220;14.480;2022-12-18T04:24:08;-4.60;99.90
17891;DHT22;9071;48.220;14.480;2022-12-18T04:29:11;-4.60;99.90
17891;DHT22;9071;48.220;14.480;2022-12-18T04:34:13;-4.70;99.90
17891;DHT22;9071;48.220;14.480;2022-12-18T04:39:16;-4.80;99.90
17891;DHT22;9071;48.220;14.480;2022-12-18T04:44:19;-4.80;99.90
17891;DHT22;9071;48.220;14.480;2022-12-18T04:49:21;-4.70;99.90
17891;DHT22;9071;48.220;14.480;2022-12-18T04:54:23;-4.80;99.90
17891;DHT22;9071;48.220;14.480;2022-12-18T04:59:27;-5.00;99.90
17891;DHT22;9071;48.220;14.480;2022-12-18T05:04:29;-5.10;99.90
17891;DHT22;9071;48.220;14.480;2022-12-18T05:09:31;-5.20;99.90
17891;DHT22;9071;48.220;14.480;2022-12-18T05:14:35;-5.20;99.90
17891;DHT22;9071;48.220;14.480;2022-12-18T05:19:37;-5.20;99.90
17891;DHT22;9071;48.220;14.480;2022-12-18T05:24:39;-5.20;99.90
17891;DHT22;9071;48.220;14.480;2022-12-18T05:29:42;-5.10;99.90
17891;DHT22;9071;48.220;14.480;2022-12-18T05:34:44;-5.10;99.90
17891;DHT22;9071;48.220;14.480;2022-12-18T05:39:46;-5.00;99.90
17891;DHT22;9071;48.220;14.480;2022-12-18T05:44:50;-5.10;99.90
17891;DHT22;9071;48.220;14.480;2022-12-18T05:49:52;-5.10;99.90
17891;DHT22;9071;48.220;14.480;2022-12-18T05:54:54;-4.50;99.90
17891;DHT22;9071;48.220;14.480;2022-12-18T05:59:57;-4.90;99.90
17891;DHT22;9071;48.220;14.480;2022-12-18T06:04:59;-5.30;99.90
17891;DHT22;9071;48.220;14.480;2022-12-18T06:10:01;-5.60;99.90
17891;DHT22;9071;48.220;14.480;2022-12-18T06:15:06;-5.90;99.90
17891;DHT22;9071;48.220;14.480;2022-12-18T06:20:09;-5.90;99.90
17891;DHT22;9071;48.220;14.480;2022-12-18T06:25:11;-6.00;99.90
17891;DHT22;9071;48.220;14.480;2022-12-18T06:30:15;-5.90;99.90
17891;DHT22;9071;48.220;14.480;2022-12-18T06:35:17;-6.00;99.90
17891;DHT22;9071;48.220;14.480;2022-12-18T06:40:19;-6.20;99.90
17891;DHT22;9071;48.220;14.480;2022-12-18T06:45:23;-6.30;99.90
17891;DHT22;9071;48.220;14.480;2022-12-18T06:50:25;-6.30;99.90
17891;DHT22;9071;48.220;14.480;2022-12-18T06:55:27;-6.40;99.90
17891;DHT22;9071;48.220;14.480;2022-12-18T07:00:30;-6.40;99.90
17891;DHT22;9071;48.220;14.480;2022-12-18T07:05:32;-6.30;99.90
17891;DHT22;9071;48.220;14.480;2022-12-18T07:10:40;-6.20;99.90
17891;DHT22;9071;48.220;14.480;2022-12-18T07:15:44;-6.10;99.90
17891;DHT22;9071;48.220;14.480;2022-12-18T07:20:46;-6.00;99.90
17891;DHT22;9071;48.220;14.480;2022-12-18T07:25:48;-5.90;99.90
17891;DHT22;9071;48.220;14.480;2022-12-18T07:30:51;-6.00;99.90
17891;DHT22;9071;48.220;14.480;2022-12-18T07:35:53;-6.00;99.90
17891;DHT22;9071;48.220;14.480;2022-12-18T07:41:00;-5.90;99.90
17891;DHT22;9071;48.220;14.480;2022-12-18T07:46:04;-5.90;99.90
17891;DHT22;9071;48.220;14.480;2022-12-18T07:51:07;-5.70;99.90
17891;DHT22;9071;48.220;14.480;2022-12-18T07:56:11;-5.40;99.90
17891;DHT22;9071;48.220;14.480;2022-12-18T08:01:15;-5.10;99.90
17891;DHT22;9071;48.220;14.480;2022-12-18T08:06:17;-4.90;99.90
17891;DHT22;9071;48.220;14.480;2022-12-18T08:11:19;-4.90;99.90
17891;DHT22;9071;48.220;14.480;2022-12-18T08:16:24;-5.00;99.90
17891;DHT22;9071;48.220;14.480;2022-12-18T08:21:27;-5.20;99.90
17891;DHT22;9071;48.220;14.480;2022-12-18T08:26:31;-5.00;99.90
17891;DHT22;9071;48.220;14.480;2022-12-18T08:31:34;-4.90;99.90
17891;DHT22;9071;48.220;14.480;2022-12-18T08:36:36;-4.90;99.90
17891;DHT22;9071;48.220;14.480;2022-12-18T08:41:38;-5.00;99.90
17891;DHT22;9071;48.220;14.480;2022-12-18T08:46:43;-5.10;99.90
17891;DHT22;9071;48.220;14.480;2022-12-18T08:51:45;-5.10;99.90
17891;DHT22;9071;48.220;14.480;2022-12-18T08:56:47;-5.00;99.90
17891;DHT22;9071;48.220;14.480;2022-12-18T09:01:53;-4.80;99.90
17891;DHT22;9071;48.220;14.480;2022-12-18T09:06:56;-4.90;99.90
17891;DHT22;9071;48.220;14.480;2022-12-18T09:11:58;-5.00;99.90
17891;DHT22;9071;48.220;14.480;2022-12-18T09:17:01;-4.90;99.90
17891;DHT22;9071;48.220;14.480;2022-12-18T09:22:03;-4.80;99.90
17891;DHT22;9071;48.220;14.480;2022-12-18T09:27:05;-4.70;99.90
17891;DHT22;9071;48.220;14.480;2022-12-18T09:32:09;-4.50;99.90
17891;DHT22;9071;48.220;14.480;2022-12-18T09:37:11;-4.30;99.90
17891;DHT22;9071;48.220;14.480;2022-12-18T09:42:17;-4.00;99.90
17891;DHT22;9071;48.220;14.480;2022-12-18T09:47:25;-3.70;99.90
17891;DHT22;9071;48.220;14.480;2022-12-18T09:52:33;-3.30;99.90
17891;DHT22;9071;48.220;14.480;2022-12-18T09:57:40;-3.10;99.90
17891;DHT22;9071;48.220;14.480;2022-12-18T10:02:46;-3.00;99.90
17891;DHT22;9071;48.220;14.480;2022-12-18T10:07:55;-2.80;99.90
17891;DHT22;9071;48.220;14.480;2022-12-18T10:13:06;-2.70;99.90
17891;DHT22;9071;48.220;14.480;2022-12-18T10:18:22;-2.60;99.90
17891;DHT22;9071;48.220;14.480;2022-12-18T10:23:30;-2.50;99.90
17891;DHT22;9071;48.220;14.480;2022-12-18T10:28:36;-2.70;99.90
17891;DHT22;9071;48.220;14.480;2022-12-18T10:33:41;-2.40;99.90
17891;DHT22;9071;48.220;14.480;2022-12-18T10:38:43;-2.50;99.90
17891;DHT22;9071;48.220;14.480;2022-12-18T10:43:45;-2.30;99.90
17891;DHT22;9071;48.220;14.480;2022-12-18T10:48:53;-2.30;99.90
17891;DHT22;9071;48.220;14.480;2022-12-18T10:53:57;-2.20;99.90
17891;DHT22;9071;48.220;14.480;2022-12-18T10:59:02;-2.10;99.90
17891;DHT22;9071;48.220;14.480;2022-12-18T11:04:09;-1.90;99.90
17891;DHT22;9071;48.220;14.480;2022-12-18T11:09:19;-1.80;99.90
17891;DHT22;9071;48.220;14.480;2022-12-18T11:14:24;-2.20;99.90
17891;DHT22;9071;48.220;14.480;2022-12-18T11:19:33;-2.30;99.90
17891;DHT22;9071;48.220;14.480;2022-12-18T11:24:35;-1.90;99.90
17891;DHT22;9071;48.220;14.480;2022-12-18T11:29:39;-1.50;99.90
17891;DHT22;9071;48.220;14.480;2022-12-18T11:34:45;-1.60;99.90
17891;DHT22;9071;48.220;14.480;2022-12-18T11:39:52;-1.30;99.90
17891;DHT22;9071;48.220;14.480;2022-12-18T11:45:00;-1.10;99.90
17891;DHT22;9071;48.220;14.480;2022-12-18T11:50:12;-1.00;99.90
17891;DHT22;9071;48.220;14.480;2022-12-18T11:55:18;-1.30;99.90
17891;DHT22;9071;48.220;14.480;2022-12-18T12:00:22;-1.20;99.90
17891;DHT22;9071;48.220;14.480;2022-12-18T12:05:31;-1.20;99.90
17891;DHT22;9071;48.220;14.480;2022-12-18T12:10:49;-1.00;99.90
17891;DHT22;9071;48.220;14.480;2022-12-18T12:16:11;-0.90;99.90
17891;DHT22;9071;48.220;14.480;2022-12-18T12:21:20;-0.70;99.90
17891;DHT22;9071;48.220;14.480;2022-12-18T12:26:29;-0.70;99.90
17891;DHT22;9071;48.220;14.480;2022-12-18T12:31:47;-0.80;99.90
17891;DHT22;9071;48.220;14.480;2022-12-18T12:37:07;-1.10;99.90
17891;DHT22;9071;48.220;14.480;2022-12-18T12:42:16;-0.90;99.90
17891;DHT22;9071;48.220;14.480;2022-12-18T12:47:41;-0.90;99.90
17891;DHT22;9071;48.220;14.480;2022-12-18T12:52:46;-1.00;99.90
17891;DHT22;9071;48.220;14.480;2022-12-18T12:57:57;-0.90;99.90
17891;DHT22;9071;48.220;14.480;2022-12-18T13:03:08;-1.00;99.90
17891;DHT22;9071;48.220;14.480;2022-12-18T13:08:22;-1.10;99.90
17891;DHT22;9071;48.220;14.480;2022-12-18T13:13:25;-1.10;99.90
17891;DHT22;9071;48.220;14.480;2022-12-18T13:18:27;-1.10;99.90
17891;DHT22;9071;48.220;14.480;2022-12-18T13:23:34;-1.10;99.90
17891;DHT22;9071;48.220;14.480;2022-12-18T13:28:51;-1.20;99.90
17891;DHT22;9071;48.220;14.480;2022-12-18T13:34:13;-1.20;99.90
17891;DHT22;9071;48.220;14.480;2022-12-18T13:39:36;-1.30;99.90
17891;DHT22;9071;48.220;14.480;2022-12-18T13:44:40;-1.50;99.90
17891;DHT22;9071;48.220;14.480;2022-12-18T13:49:43;-1.70;99.90
17891;DHT22;9071;48.220;14.480;2022-12-18T13:54:51;-1.70;99.90
17891;DHT22;9071;48.220;14.480;2022-12-18T13:59:53;-1.70;99.90
17891;DHT22;9071;48.220;14.480;2022-12-18T14:04:55;-1.90;99.90
17891;DHT22;9071;48.220;14.480;2022-12-18T14:10:00;-2.20;99.90
17891;DHT22;9071;48.220;14.480;2022-12-18T14:15:03;-2.30;99.90
17891;DHT22;9071;48.220;14.480;2022-12-18T14:20:13;-2.50;99.90
17891;DHT22;9071;48.220;14.480;2022-12-18T14:25:19;-2.70;99.90
17891;DHT22;9071;48.220;14.480;2022-12-18T14:30:30;-2.70;99.90
17891;DHT22;9071;48.220;14.480;2022-12-18T14:35:32;-2.80;99.90
17891;DHT22;9071;48.220;14.480;2022-12-18T14:40:36;-2.80;99.90
17891;DHT22;9071;48.220;14.480;2022-12-18T14:45:39;-2.70;99.90
17891;DHT22;9071;48.220;14.480;2022-12-18T14:50:43;-2.70;99.90
17891;DHT22;9071;48.220;14.480;2022-12-18T14:55:47;-2.60;99.90
17891;DHT22;9071;48.220;14.480;2022-12-18T15:00:50;-2.60;99.90
17891;DHT22;9071;48.220;14.480;2022-12-18T15:05:52;-2.50;99.90
17891;DHT22;9071;48.220;14.480;2022-12-18T15:10:55;-2.50;99.90
17891;DHT22;9071;48.220;14.480;2022-12-18T15:16:00;-2.50;99.90
17891;DHT22;9071;48.220;14.480;2022-12-18T15:21:09;-2.50;99.90
17891;DHT22;9071;48.220;14.480;2022-12-18T15:26:15;-2.50;99.90
17891;DHT22;9071;48.220;14.480;2022-12-18T15:31:29;-2.50;99.90
17891;DHT22;9071;48.220;14.480;2022-12-18T15:36:31;-2.50;99.90
17891;DHT22;9071;48.220;14.480;2022-12-18T15:41:38;-2.50;99.90
17891;DHT22;9071;48.220;14.480;2022-12-18T15:46:42;-2.50;99.90
17891;DHT22;9071;48.220;14.480;2022-12-18T15:51:46;-2.60;99.90
17891;DHT22;9071;48.220;14.480;2022-12-18T15:56:52;-2.50;99.90
17891;DHT22;9071;48.220;14.480;2022-12-18T16:02:16;-2.60;99.90
17891;DHT22;9071;48.220;14.480;2022-12-18T16:07:18;-2.50;99.90
17891;DHT22;9071;48.220;14.480;2022-12-18T16:12:24;-2.50;99.90
17891;DHT22;9071;48.220;14.480;2022-12-18T16:17:26;-2.60;99.90
17891;DHT22;9071;48.220;14.480;2022-12-18T16:22:30;-2.60;99.90
17891;DHT22;9071;48.220;14.480;2022-12-18T16:27:33;-2.60;99.90
17891;DHT22;9071;48.220;14.480;2022-12-18T16:32:35;-2.60;99.90
17891;DHT22;9071;48.220;14.480;2022-12-18T16:37:38;-2.60;99.90
17891;DHT22;9071;48.220;14.480;2022-12-18T16:42:43;-2.60;99.90
17891;DHT22;9071;48.220;14.480;2022-12-18T16:47:45;-2.60;99.90
17891;DHT22;9071;48.220;14.480;2022-12-18T16:52:49;-2.50;99.90
17891;DHT22;9071;48.220;14.480;2022-12-18T16:57:53;-2.50;99.90
17891;DHT22;9071;48.220;14.480;2022-12-18T17:02:56;-2.50;99.90
17891;DHT22;9071;48.220;14.480;2022-12-18T17:07:58;-2.50;99.90
17891;DHT22;9071;48.220;14.480;2022-12-18T17:13:02;-2.40;99.90
17891;DHT22;9071;48.220;14.480;2022-12-18T17:18:05;-2.40;99.90
17891;DHT22;9071;48.220;14.480;2022-12-18T17:23:07;-2.40;99.90
17891;DHT22;9071;48.220;14.480;2022-12-18T17:28:10;-2.40;99.90
17891;DHT22;9071;48.220;14.480;2022-12-18T17:33:13;-2.40;99.90
17891;DHT22;9071;48.220;14.480;2022-12-18T17:38:17;-2.40;99.90
17891;DHT22;9071;48.220;14.480;2022-12-18T17:43:21;-2.40;99.90
17891;DHT22;9071;48.220;14.480;2022-12-18T17:48:25;-2.30;99.90
17891;DHT22;9071;48.220;14.480;2022-12-18T17:53:28;-2.30;99.90
17891;DHT22;9071;48.220;14.480;2022-12-18T17:58:35;-2.30;99.90
17891;DHT22;9071;48.220;14.480;2022-12-18T18:03:38;-2.30;99.90
17891;DHT22;9071;48.220;14.480;2022-12-18T18:08:40;-2.30;99.90
17891;DHT22;9071;48.220;14.480;2022-12-18T18:13:44;-2.30;99.90
17891;DHT22;9071;48.220;14.480;2022-12-18T18:19:08;-2.30;99.90
17891;DHT22;9071;48.220;14.480;2022-12-18T18:24:12;-2.30;99.90
17891;DHT22;9071;48.220;14.480;2022-12-18T18:29:17;-2.30;99.90
17891;DHT22;9071;48.220;14.480;2022-12-18T18:34:21;-2.30;99.90
17891;DHT22;9071;48.220;14.480;2022-12-18T18:39:23;-2.30;99.90
17891;DHT22;9071;48.220;14.480;2022-12-18T18:44:27;-2.20;99.90
17891;DHT22;9071;48.220;14.480;2022-12-18T18:49:29;-2.20;99.90
17891;DHT22;9071;48.220;14.480;2022-12-18T18:54:31;-2.20;99.90
17891;DHT22;9071;48.220;14.480;2022-12-18T18:59:35;-2.20;99.90
17891;DHT22;9071;48.220;14.480;2022-12-18T19:04:37;-2.20;99.90
17891;DHT22;9071;48.220;14.480;2022-12-18T19:09:39;-2.10;99.90
17891;DHT22;9071;48.220;14.480;2022-12-18T19:14:43;-2.20;99.90
17891;DHT22;9071;48.220;14.480;2022-12-18T19:19:45;-2.20;99.90
17891;DHT22;9071;48.220;14.480;2022-12-18T19:24:47;-2.20;99.90
17891;DHT22;9071;48.220;14.480;2022-12-18T19:29:50;-2.30;99.90
17891;DHT22;9071;48.220;14.480;2022-12-18T19:34:53;-2.40;99.90
17891;DHT22;9071;48.220;14.480;2022-12-18T19:39:55;-2.50;99.90
17891;DHT22;9071;48.220;14.480;2022-12-18T19:44:58;-2.70;99.90
17891;DHT22;9071;48.220;14.480;2022-12-18T19:50:00;-2.80;99.90
17891;DHT22;9071;48.220;14.480;2022-12-18T19:55:03;-2.80;99.90
17891;DHT22;9071;48.220;14.480;2022-12-18T20:00:08;-2.90;99.90
17891;DHT22;9071;48.220;14.480;2022-12-18T20:05:11;-2.90;99.90
17891;DHT22;9071;48.220;14.480;2022-12-18T20:10:13;-2.90;99.90
17891;DHT22;9071;48.220;14.480;2022-12-18T20:15:16;-2.90;99.90
17891;DHT22;9071;48.220;14.480;2022-12-18T20:20:18;-2.90;99.90
17891;DHT22;9071;48.220;14.480;2022-12-18T20:25:20;-2.80;99.90
17891;DHT22;9071;48.220;14.480;2022-12-18T20:30:24;-2.80;99.90
17891;DHT22;9071;48.220;14.480;2022-12-18T20:35:26;-2.80;99.90
17891;DHT22;9071;48.220;14.480;2022-12-18T20:40:30;-2.80;99.90
17891;DHT22;9071;48.220;14.480;2022-12-18T20:45:34;-2.80;99.90
17891;DHT22;9071;48.220;14.480;2022-12-18T20:50:36;-2.80;99.90
17891;DHT22;9071;48.220;14.480;2022-12-18T20:55:40;-2.80;99.90
17891;DHT22;9071;48.220;14.480;2022-12-18T21:00:45;-2.90;99.90
17891;DHT22;9071;48.220;14.480;2022-12-18T21:05:47;-2.90;99.90
17891;DHT22;9071;48.220;14.480;2022-12-18T21:10:49;-2.90;99.90
17891;DHT22;9071;48.220;14.480;2022-12-18T21:15:53;-2.90;99.90
17891;DHT22;9071;48.220;14.480;2022-12-18T21:20:55;-3.00;99.90
17891;DHT22;9071;48.220;14.480;2022-12-18T21:26:14;-2.90;99.90
17891;DHT22;9071;48.220;14.480;2022-12-18T21:31:18;-2.90;99.90
17891;DHT22;9071;48.220;14.480;2022-12-18T21:36:20;-3.00;99.90
17891;DHT22;9071;48.220;14.480;2022-12-18T21:41:22;-2.90;99.90
17891;DHT22;9071;48.220;14.480;2022-12-18T21:46:45;-2.90;99.90
17891;DHT22;9071;48.220;14.480;2022-12-18T21:51:48;-2.80;99.90
17891;DHT22;9071;48.220;14.480;2022-12-18T21:56:52;-2.80;99.90
17891;DHT22;9071;48.220;14.480;2022-12-18T22:01:57;-2.70;99.90
17891;DHT22;9071;48.220;14.480;2022-12-18T22:06:59;-2.80;99.90
17891;DHT22;9071;48.220;14.480;2022-12-18T22:12:02;-2.90;99.90
17891;DHT22;9071;48.220;14.480;2022-12-18T22:17:06;-2.90;99.90
17891;DHT22;9071;48.220;14.480;2022-12-18T22:22:09;-3.00;99.90
17891;DHT22;9071;48.220;14.480;2022-12-18T22:27:11;-3.00;99.90
17891;DHT22;9071;48.220;14.480;2022-12-18T22:32:14;-2.90;99.90
17891;DHT22;9071;48.220;14.480;2022-12-18T22:37:17;-2.90;99.90
17891;DHT22;9071;48.220;14.480;2022-12-18T22:42:19;-2.70;99.90
17891;DHT22;9071;48.220;14.480;2022-12-18T22:47:22;-2.70;99.90
17891;DHT22;9071;48.220;14.480;2022-12-18T22:52:24;-2.80;99.90
17891;DHT22;9071;48.220;14.480;2022-12-18T22:57:26;-2.90;99.90
17891;DHT22;9071;48.220;14.480;2022-12-18T23:02:30;-2.90;99.90
17891;DHT22;9071;48.220;14.480;2022-12-18T23:07:32;-3.00;99.90
17891;DHT22;9071;48.220;14.480;2022-12-18T23:12:34;-3.20;99.90
17891;DHT22;9071;48.220;14.480;2022-12-18T23:17:38;-3.40;99.90
17891;DHT22;9071;48.220;14.480;2022-12-18T23:22:40;-3.60;99.90
17891;DHT22;9071;48.220;14.480;2022-12-18T23:27:42;-3.80;99.90
17891;DHT22;9071;48.220;14.480;2022-12-18T23:32:46;-3.90;99.90
17891;DHT22;9071;48.220;14.480;2022-12-18T23:37:48;-4.00;99.90
17891;DHT22;9071;48.220;14.480;2022-12-18T23:42:50;-4.10;99.90
17891;DHT22;9071;48.220;14.480;2022-12-18T23:47:53;-4.20;99.90
17891;DHT22;9071;48.220;14.480;2022-12-18T23:52:56;-4.30;99.90
17891;DHT22;9071;48.220;14.480;2022-12-18T23:57:58;-4.40;99.90
